Boulder City, Nevada Weather observations

Data are for observation ending at time listed.
 Day   Time    Ave.   Ave.  Ave.  Vector   Max.   Stn.    Total    Solar   Ave.  
  of    of     Air    Rel.  Wind   Wind    Wind   Baro.  Precip.   Rad.    Soil  
Year   Day     Temp.  Hum.  Speed  Dir.    Gust   Pres.                    Temp. 
2026   (PST)    F      %     mph   deg.    mph     mb.     in.     W/m2     F   
------------------------------------------------------------------------------
 248    1:20   76.4    16    2.5   191      3.9   914.6    0.00       0    88.2
 248    1:30   76.1    18    3.6   228      6.6   914.5    0.00       0    88.1
 248    1:40   76.9    18    4.0   234      5.9   914.6    0.00       0    87.9
 248    1:50   76.8    18    4.5   241      6.3   914.6    0.00       0    87.8
 248    2:00   76.6    18    4.6   244      6.3   914.6    0.00       0    87.6
 248    2:10   76.3    19    4.6   240      5.9   914.7    0.00       0    87.4
 248    2:20   76.3    20    4.2   237      6.1   914.6    0.00       0    87.3
 248    2:30   75.8    20    2.6   217      4.4   914.7    0.00       0    87.1
 248    2:40   75.7    21    3.0   224      5.5   914.7    0.00       0    87.0
 248    2:50   75.5    21    2.9   206      5.0   914.7    0.00       0    86.9
 248    3:00   75.1    21    3.0   203      5.3   914.7    0.00       0    86.8
 248    3:10   75.0    22    3.4   202      6.5   914.7    0.00       0    86.6
 248    3:20   75.1    22    3.9   214      7.6   914.6    0.00       0    86.5
 248    3:30   75.4    22    5.2   224      9.0   914.6    0.00       0    86.4
 248    3:40   75.5    22    5.1   221      8.0   914.7    0.00       0    86.3
 248    3:50   75.3    22    3.4   192      5.9   914.7    0.00       0    86.1
 248    4:00   74.8    22    4.8   141      9.9   914.8    0.00       0    86.0
 248    4:10   74.8    22    4.6   166      7.2   914.8    0.00       0    85.9
 248    4:20   74.0    23    3.9   158      6.6   914.8    0.00       0    85.7
 248    4:30   74.4    23    4.4   171      6.9   914.8    0.00       0    85.6
 248    4:40   73.6    23    4.7   222      6.3   914.9    0.00       0    85.5
 248    4:50   72.8    24    4.6   226      7.3   914.8    0.00       0    85.4
 248    5:00   72.7    24    4.8   238      7.2   914.9    0.00       0    85.2
 248    5:10   72.7    24    3.9   218      6.4   914.9    0.00       2    85.1
 248    5:20   72.5    25    3.8   191      5.2   915.0    0.00       4    85.0
 248    5:30   72.2    25    3.0   196      4.7   915.2    0.00       8    84.9
 248    5:40   72.4    25    3.6   191      5.3   915.3    0.00      33    84.8
 248    5:50   73.6    24    3.6   193      5.8   915.5    0.00      93    84.6
 248    6:00   74.8    23    3.4   201      4.7   915.7    0.00     125    84.6
 248    6:10   75.9    23    3.2   207      5.6   915.9    0.00     159    84.4
 248    6:20   76.8    22    3.3   208      5.7   916.0    0.00     194    84.3
 248    6:30   77.6    21    4.2   207      8.0   916.2    0.00     228    84.2
 248    6:40   78.2    21    5.3   222      8.8   916.5    0.00     263    84.2
 248    6:50   78.8    20    5.7   222      9.2   916.7    0.00     298    84.1
 248    7:00   79.4    20    5.0   211      8.7   916.8    0.00     333    84.1
 248    7:10   80.0    19    5.8   211      9.8   917.0    0.00     367    84.1
 248    7:20   80.2    19    7.0   219     10.4   917.1    0.00     402    84.3
 248    7:30   81.2    18    6.0   216     11.0   917.1    0.00     435    84.5
 248    7:40   81.6    18    6.1   204      9.6   917.2    0.00     468    84.6
 248    7:50   82.4    17    6.2   198     10.2   917.2    0.00     500    84.9
 248    8:00   82.9    16    6.1   199     10.6   917.3    0.00     530    85.1
 248    8:10   83.4    16    6.1   203     10.0   917.4    0.00     559    85.4
 248    8:20   83.5    16    5.7   193      9.7   917.5    0.00     588    85.7
 248    8:30   84.2    15    5.3   184      8.8   917.6    0.00     616    86.0
 248    8:40   84.8    15    4.9   180      8.7   917.8    0.00     643    86.6
 248    8:50   84.7    15    4.7   190      8.2   917.8    0.00     669    87.0
 248    9:00   85.3    14    4.3   208      9.1   917.9    0.00     691    87.5
 248    9:10   86.0    14    2.9   209      6.5   917.9    0.00     702    88.0
 248    9:20   86.6    14    2.8   211      6.4   918.0    0.00     729    88.4
 248    9:30   88.1    13    3.9   131     13.1   918.0    0.00     505    88.8
 248    9:40   88.8    12    4.2   131     11.6   918.0    0.00      43    89.5
 248    9:50   89.6    12    3.5   110      9.4   917.9    0.00      43    90.1
 248   10:00   90.1    11    4.0   107     11.5   918.0    0.00     339    90.8
 248   10:10   90.2    11    6.5    98     11.8   918.1    0.00     708    91.3
 248   10:20   90.0    11    6.9   150     13.0   918.0    0.00     422    92.0
 248   10:30   90.3    11    5.2   113     14.6   918.0    0.00     751    92.6
 248   10:40   90.9    11    5.6   109     12.4   917.9    0.00     842    93.2
 248   10:50   92.1    11    5.5    98     12.9   918.0    0.00     845    93.7
 248   11:00   92.2    11    5.8   118     17.4   917.7    0.00     842    94.4
 248   11:10   93.5    10    5.5   168     14.2   917.7    0.00     844    95.0
 248   11:20   93.0    10    6.2   167     14.5   917.6    0.00     873    95.5
 248   11:30   93.6    10    6.2   172     13.6   917.4    0.00     874    96.1
 248   11:40   94.3    10    7.6   148     17.8   917.4    0.00     873    96.6
 248   11:50   94.5    10    6.7   139     16.3   917.2    0.00     870    97.1
 248   12:00   93.8    11    6.8   120     18.6   917.2    0.00     866    97.6
 248   12:10   94.6    10    6.9   139     15.0   917.1    0.00     861    98.0
 248   12:20   95.2    10    9.8   159     25.9   917.0    0.00     854    98.4
 248   12:30   95.8    10    6.7   140     18.0   916.8    0.00     843    98.8
 248   12:40   96.1    10    8.2   128     20.5   916.7    0.00     831    99.2
 248   12:50   96.6    10    8.1   141     22.6   916.6    0.00     819    99.3
 248   13:00   97.2    10    6.9   151     19.1   916.4    0.00     804    99.9
 248   13:10   97.2    10    8.7   143     16.3   916.4    0.00     781    100.2
 248   13:20   98.2    10    7.6   169     20.0   916.4    0.00     770    100.5
 248   13:30   99.2    10    8.6   166     15.1   916.3    0.00     753    100.8
 248   13:40   99.3     9   11.3   187     20.5   916.3    0.00     735    100.9
 248   13:50   98.6     9   10.3   198     19.6   916.3    0.00     717    101.2
 248   14:00   98.2    10   11.7   210     21.9   916.1    0.00     693    101.3
 248   14:10   98.4    10    9.9   209     18.3   916.0    0.00     669    101.5
 248   14:20   98.5    10   10.8   208     25.2   915.9    0.00     642    101.6
 248   14:30   98.4    11   13.1   208     21.0   915.9    0.00     617    101.7
 248   14:40   98.4    11   11.2   213     21.2   915.8    0.00     591    101.7
 248   14:50   98.7    11   10.5   203     22.4   915.7    0.00     563    101.8
 248   15:00   98.9    11    9.9   221     20.5   915.8    0.00     537    101.9
 248   15:10   98.5    11   10.5   208     17.8   915.7    0.00     500    101.7
 248   15:20   98.9    11   11.7   196     19.5   915.6    0.00     469    101.8
 248   15:30   98.8    11   10.3   200     17.2   915.6    0.00     436    101.7
 248   15:40   98.0    11   11.2   215     18.8   915.6    0.00     402    101.4
 248   15:50   97.8    11   10.0   207     17.0   915.5    0.00     369    101.2
 248   16:00   97.9    11   10.2   197     17.3   915.5    0.00     336    100.9
 248   16:10   97.8    11    9.4   194     17.0   915.4    0.00     302    100.7
 248   16:20   97.3    11    8.4   209     14.8   915.5    0.00     268    100.5
 248   16:30   96.8    11    6.7   232     13.7   915.4    0.00     233    100.4
 248   16:40   96.9    11    6.8   226     12.6   915.4    0.00     203    100.2
 248   16:50   96.7    11    7.6   212     12.7   915.4    0.00     179    100.2
 248   17:00   96.3    11    6.6   214     11.9   915.5    0.00     150    100.0
 248   17:10   96.2    11    6.4   208     11.9   915.4    0.00     122    99.8
 248   17:20   95.6    11    6.4   205     11.2   915.4    0.00      93    99.6
 248   17:30   94.6    12    5.5   211     10.4   915.4    0.00      64    99.5
 248   17:40   93.9    12    5.3   220      9.9   915.3    0.00      16    99.3
 248   17:50   93.4    12    4.7   218      8.3   915.1    0.00      11    99.0
 248   18:00   93.0    12    4.0   208      6.9   915.0    0.00       7    98.9
 248   18:10   92.6    12    3.8   211      7.3   915.0    0.00       3    98.6
 248   18:20   92.0    13    3.3   216      5.8   915.0    0.00       1    98.3
 248   18:30   91.6    13    3.7   213      6.2   914.9    0.00       0    98.1
 248   18:40   90.8    13    2.8   226      3.9   915.0    0.00       0    97.9
 248   18:50   90.0    13    3.6   149      8.8   915.0    0.00       0    97.7
 248   19:00   90.0    13    4.7   165      8.3   915.1    0.00       0    97.4
 248   19:10   89.6    14    3.4   185      5.7   915.3    0.00       0    97.2
 248   19:20   88.6    14    2.5   163      6.6   915.3    0.00       0    96.9
 248   19:30   88.9    14    2.5   157      6.0   915.4    0.00       0    96.6
 248   19:40   88.2    15    2.4   180      5.3   915.5    0.00       0    96.4
 248   19:50   87.1    16    2.2   198      7.5   915.5    0.00       0    96.2
 248   20:00   87.8    18    4.7   171      9.6   915.6    0.00       0    96.0
 248   20:10   87.9    18    6.0   164     11.7   915.7    0.00       0    95.7
 248   20:20   87.6    18    5.3   183     10.1   915.8    0.00       0    95.4
 248   20:30   87.0    18    2.9   200      5.6   915.8    0.00       0    95.2
 248   20:40   86.4    20    3.6   202      6.7   915.9    0.00       0    95.0
 248   20:50   85.9    19    4.3   222      7.7   915.9    0.00       0    94.9
 248   21:00   85.6    19    4.1   237      7.3   915.9    0.00       0    94.6
 248   21:10   85.5    19    5.0   245      9.8   915.8    0.00       0    94.4
 248   21:20   85.6    20    5.3   237      9.1   915.8    0.00       0    94.2
 248   21:30   85.4    21    6.0   229      8.8   915.8    0.00       0    93.9
 248   21:40   84.6    23    5.9   229      8.8   915.8    0.00       0    93.8
 248   21:50   84.8    23    5.4   216      9.2   915.7    0.00       0    93.6
 248   22:00   85.5    24    5.3   205      8.7   915.7    0.00       0    93.3
 248   22:10   85.1    24    5.1   219      9.3   915.7    0.00       0    93.0
 248   22:20   84.6    24    5.2   231      8.6   915.7    0.00       0    92.9
 248   22:30   84.5    24    6.8   233     11.2   915.7    0.00       0    92.8
 248   22:40   84.2    25    5.3   232      9.5   915.8    0.00       0    92.7
 248   22:50   83.4    25    4.5   240      7.1   915.8    0.00       0    92.4
 248   23:00   82.9    26    4.3   250      8.1   915.7    0.00       0    92.3
 248   23:10   83.1    26    3.9   254      8.8   915.9    0.00       0    92.1
 248   23:20   83.4    26    4.4   242      8.3   915.8    0.00       0    92.0
 248   23:30   83.8    26    4.7   212      8.8   915.8    0.00       0    91.8
 248   23:40   83.8    26    4.3   215      7.1   915.7    0.00       0    91.8
 248   23:50   83.3    27    5.7   233      9.8   915.6    0.00       0    91.5
 249    0:00   83.0    27    6.4   230     10.2   915.7    0.00       0    91.3
 249    0:10   83.2    27    6.8   226      9.7   915.8    0.00       0    91.2
 249    0:20   83.0    27    6.5   239      9.9   915.6    0.00       0    91.0
 249    0:30   83.0    27    5.9   231      9.5   915.6    0.00       0    90.9
 249    0:40   82.7    28    4.8   232      7.2   915.6    0.00       0    90.8
 249    0:50   82.5    28    4.7   237      7.0   915.6    0.00       0    90.6
 249    1:00   82.7    28    4.9   247      8.8   915.5    0.00       0    90.6
 249    1:10   82.8    28    4.6   239      7.9   915.5    0.00       0    90.4

Return to Boulder City, Nevada graphs page.


Western Regional Climate Center,wrcc@dri.edu